IBE250 KSFO-LEMD
Flight info
| Callsign | IBE250 |
|---|---|
| Flight time | 2h 8m |
| Altitude | 33000 |
| Route | TRUKN2 ORRCA Q120 GALLI BAM DIK GFK GABOV YMO ROUND EXPOS NEEKO SAXAN 5230N05000W 5030N04000W 4930N03000W 47N020W HIDRA STG DESAT N733 ZMR ZMR5C |
| Aircraft | A346/H-VGDW/C |
Departure
| Time | 2026-05-07 20:58 |
|---|---|
| Airport | San Francisco International Airport (KSFO) |
Arrival
| Time | 2026-05-07 23:06 |
|---|---|
| Airport | Adolfo Suárez Madrid–Barajas Airport (LEMD) |
| Time | Latitude | Longitude | Altitude | Speed | Heading |
|---|---|---|---|---|---|
| 2026-05-07 20:37 | 37.62111 | -122.38843 | 22 ft | 0 kts | 208° |
| 2026-05-07 20:47 | 37.62122 | -122.38836 | 27 ft | 0 kts | 208° |
| 2026-05-07 20:48 | 37.62144 | -122.38820 | 26 ft | 0 kts | 208° |
| 2026-05-07 20:48 | 37.62167 | -122.38804 | 26 ft | 0 kts | 208° |
| 2026-05-07 20:48 | 37.62189 | -122.38794 | 26 ft | 0 kts | 187° |
| 2026-05-07 20:48 | 37.62205 | -122.38799 | 26 ft | 1 kts | 145° |
| 2026-05-07 20:49 | 37.62216 | -122.38816 | 26 ft | 1 kts | 116° |
| 2026-05-07 20:49 | 37.62217 | -122.38818 | 26 ft | 0 kts | 116° |
| 2026-05-07 20:50 | 37.62214 | -122.38811 | 26 ft | 3 kts | 116° |
| 2026-05-07 20:50 | 37.62199 | -122.38768 | 24 ft | 7 kts | 113° |
| 2026-05-07 20:51 | 37.62162 | -122.38671 | 29 ft | 19 kts | 118° |
| 2026-05-07 20:51 | 37.62102 | -122.38529 | 26 ft | 18 kts | 118° |
| 2026-05-07 20:51 | 37.62046 | -122.38395 | 28 ft | 17 kts | 117° |
| 2026-05-07 20:51 | 37.61992 | -122.38266 | 31 ft | 17 kts | 117° |
| 2026-05-07 20:52 | 37.61937 | -122.38130 | 29 ft | 18 kts | 117° |
| 2026-05-07 20:52 | 37.61878 | -122.37991 | 29 ft | 18 kts | 118° |
| 2026-05-07 20:52 | 37.61831 | -122.37866 | 31 ft | 16 kts | 111° |
| 2026-05-07 20:52 | 37.61788 | -122.37726 | 30 ft | 17 kts | 111° |
| 2026-05-07 20:53 | 37.61745 | -122.37587 | 27 ft | 16 kts | 111° |
| 2026-05-07 20:53 | 37.61697 | -122.37455 | 27 ft | 17 kts | 118° |
| 2026-05-07 20:53 | 37.61644 | -122.37331 | 30 ft | 15 kts | 118° |
| 2026-05-07 20:53 | 37.61593 | -122.37211 | 30 ft | 16 kts | 118° |
| 2026-05-07 20:54 | 37.61540 | -122.37085 | 29 ft | 17 kts | 118° |
| 2026-05-07 20:54 | 37.61485 | -122.36957 | 30 ft | 17 kts | 122° |
| 2026-05-07 20:54 | 37.61409 | -122.36843 | 27 ft | 16 kts | 131° |
| 2026-05-07 20:54 | 37.61343 | -122.36724 | 29 ft | 17 kts | 119° |
| 2026-05-07 20:55 | 37.61284 | -122.36588 | 27 ft | 18 kts | 118° |
| 2026-05-07 20:55 | 37.61224 | -122.36443 | 28 ft | 18 kts | 117° |
| 2026-05-07 20:55 | 37.61168 | -122.36308 | 28 ft | 17 kts | 118° |
| 2026-05-07 20:55 | 37.61112 | -122.36177 | 29 ft | 14 kts | 118° |
| 2026-05-07 20:56 | 37.61069 | -122.36072 | 27 ft | 13 kts | 114° |
| 2026-05-07 20:56 | 37.61065 | -122.35958 | 26 ft | 14 kts | 66° |
| 2026-05-07 20:56 | 37.61132 | -122.35884 | 26 ft | 11 kts | 27° |
| 2026-05-07 20:56 | 37.61195 | -122.35913 | 31 ft | 12 kts | 309° |
| 2026-05-07 20:57 | 37.61250 | -122.36032 | 26 ft | 30 kts | 298° |
| 2026-05-07 20:57 | 37.61446 | -122.36497 | 26 ft | 87 kts | 298° |
| 2026-05-07 20:57 | 37.61813 | -122.37366 | 30 ft | 136 kts | 298° |
| 2026-05-07 20:57 | 37.62314 | -122.38562 | 41 ft | 173 kts | 300° |
| 2026-05-07 20:58 | 37.62903 | -122.39939 | 421 ft | 179 kts | 299° |
| 2026-05-07 20:58 | 37.63585 | -122.41253 | 1013 ft | 179 kts | 315° |
| 2026-05-07 20:58 | 37.64715 | -122.41867 | 1532 ft | 185 kts | 3° |
| 2026-05-07 20:58 | 37.65882 | -122.41155 | 1905 ft | 201 kts | 47° |
| 2026-05-07 20:59 | 37.66612 | -122.39560 | 2139 ft | 218 kts | 68° |
| 2026-05-07 20:59 | 37.67110 | -122.37689 | 2397 ft | 231 kts | 70° |
| 2026-05-07 20:59 | 37.67634 | -122.35698 | 2620 ft | 247 kts | 69° |
| 2026-05-07 20:59 | 37.68220 | -122.33593 | 2900 ft | 261 kts | 70° |
| 2026-05-07 21:00 | 37.68852 | -122.31389 | 3302 ft | 271 kts | 70° |
| 2026-05-07 21:00 | 37.69499 | -122.29144 | 3750 ft | 279 kts | 70° |
| 2026-05-07 21:00 | 37.70173 | -122.26831 | 4309 ft | 282 kts | 70° |
| 2026-05-07 21:00 | 37.70859 | -122.24488 | 4890 ft | 286 kts | 70° |
| 2026-05-07 21:01 | 37.71649 | -122.22155 | 5400 ft | 290 kts | 56° |
| 2026-05-07 21:01 | 37.72978 | -122.20254 | 6007 ft | 290 kts | 36° |
| 2026-05-07 21:01 | 37.74611 | -122.18743 | 6588 ft | 293 kts | 33° |
| 2026-05-07 21:01 | 37.76298 | -122.17272 | 7131 ft | 297 kts | 33° |
| 2026-05-07 21:02 | 37.78008 | -122.15777 | 7681 ft | 299 kts | 33° |
| 2026-05-07 21:02 | 37.79718 | -122.14261 | 8285 ft | 301 kts | 34° |
| 2026-05-07 21:02 | 37.81436 | -122.12720 | 8892 ft | 304 kts | 34° |
| 2026-05-07 21:02 | 37.83163 | -122.11159 | 9442 ft | 307 kts | 34° |
| 2026-05-07 21:03 | 37.84906 | -122.09579 | 9998 ft | 310 kts | 34° |
| 2026-05-07 21:03 | 37.86676 | -122.07974 | 10404 ft | 317 kts | 34° |
| 2026-05-07 21:03 | 37.88511 | -122.06310 | 10643 ft | 331 kts | 34° |
| 2026-05-07 21:03 | 37.90421 | -122.04577 | 10884 ft | 344 kts | 34° |
| 2026-05-07 21:04 | 37.92403 | -122.02779 | 11115 ft | 357 kts | 34° |
| 2026-05-07 21:04 | 37.94463 | -122.00908 | 11351 ft | 370 kts | 34° |
| 2026-05-07 21:04 | 37.96586 | -121.98978 | 11583 ft | 383 kts | 34° |
| 2026-05-07 21:04 | 37.97720 | -121.97947 | 11705 ft | 389 kts | 34° |
| 2026-05-07 21:05 | 37.99786 | -121.96066 | 11973 ft | 398 kts | 34° |
| 2026-05-07 21:05 | 38.02010 | -121.94042 | 12478 ft | 402 kts | 34° |
| 2026-05-07 21:05 | 38.04257 | -121.91995 | 13068 ft | 403 kts | 34° |
| 2026-05-07 21:05 | 38.06514 | -121.89936 | 13630 ft | 406 kts | 34° |
| 2026-05-07 21:06 | 38.08792 | -121.87856 | 14125 ft | 409 kts | 34° |
| 2026-05-07 21:06 | 38.11094 | -121.85752 | 14592 ft | 411 kts | 34° |
| 2026-05-07 21:06 | 38.13382 | -121.83663 | 15069 ft | 414 kts | 34° |
| 2026-05-07 21:06 | 38.15673 | -121.81568 | 15566 ft | 415 kts | 34° |
| 2026-05-07 21:07 | 38.17983 | -121.79452 | 16102 ft | 416 kts | 34° |
| 2026-05-07 21:07 | 38.20317 | -121.77313 | 16631 ft | 418 kts | 34° |
| 2026-05-07 21:07 | 38.22657 | -121.75165 | 17152 ft | 419 kts | 35° |
| 2026-05-07 21:07 | 38.25009 | -121.73008 | 17666 ft | 421 kts | 34° |
| 2026-05-07 21:08 | 38.27360 | -121.70847 | 18176 ft | 423 kts | 35° |
| 2026-05-07 21:08 | 38.29721 | -121.68677 | 18630 ft | 425 kts | 34° |
| 2026-05-07 21:08 | 38.32087 | -121.66500 | 19033 ft | 427 kts | 35° |
| 2026-05-07 21:08 | 38.34468 | -121.64307 | 19436 ft | 430 kts | 35° |
| 2026-05-07 21:09 | 38.36886 | -121.62078 | 19831 ft | 433 kts | 35° |
| 2026-05-07 21:09 | 38.39264 | -121.59884 | 20219 ft | 435 kts | 35° |
| 2026-05-07 21:09 | 38.41627 | -121.57667 | 20609 ft | 438 kts | 37° |
| 2026-05-07 21:09 | 38.43876 | -121.55216 | 20994 ft | 441 kts | 43° |
| 2026-05-07 21:10 | 38.45970 | -121.52481 | 21383 ft | 444 kts | 48° |
| 2026-05-07 21:10 | 38.47908 | -121.49486 | 21782 ft | 446 kts | 51° |
| 2026-05-07 21:10 | 38.49788 | -121.46411 | 22191 ft | 448 kts | 52° |
| 2026-05-07 21:10 | 38.51659 | -121.43315 | 22571 ft | 451 kts | 52° |
| 2026-05-07 21:11 | 38.53548 | -121.40191 | 22946 ft | 454 kts | 52° |
| 2026-05-07 21:11 | 38.55455 | -121.37041 | 23301 ft | 457 kts | 52° |
| 2026-05-07 21:11 | 38.59313 | -121.30683 | 23925 ft | 463 kts | 52° |
| 2026-05-07 21:12 | 38.61268 | -121.27462 | 24256 ft | 465 kts | 52° |
| 2026-05-07 21:12 | 38.63217 | -121.24250 | 24567 ft | 466 kts | 52° |
| 2026-05-07 21:12 | 38.65190 | -121.20990 | 24901 ft | 468 kts | 52° |
| 2026-05-07 21:12 | 38.67179 | -121.17710 | 25244 ft | 469 kts | 51° |
| 2026-05-07 21:13 | 38.69161 | -121.14443 | 25580 ft | 471 kts | 51° |
| 2026-05-07 21:13 | 38.71149 | -121.11162 | 25885 ft | 473 kts | 51° |
| 2026-05-07 21:13 | 38.73109 | -121.07925 | 26192 ft | 474 kts | 51° |
| 2026-05-07 21:13 | 38.75136 | -121.04573 | 26501 ft | 476 kts | 51° |
| 2026-05-07 21:14 | 38.77115 | -121.01297 | 26795 ft | 477 kts | 51° |
| 2026-05-07 21:14 | 38.79125 | -120.97964 | 27085 ft | 479 kts | 51° |
| 2026-05-07 21:14 | 38.81149 | -120.94602 | 27370 ft | 481 kts | 51° |
| 2026-05-07 21:14 | 38.83156 | -120.91261 | 27732 ft | 482 kts | 51° |
| 2026-05-07 21:15 | 38.85181 | -120.87891 | 28032 ft | 483 kts | 51° |
| 2026-05-07 21:15 | 38.87205 | -120.84520 | 28318 ft | 485 kts | 51° |
| 2026-05-07 21:15 | 38.89255 | -120.81101 | 28614 ft | 486 kts | 51° |
| 2026-05-07 21:15 | 38.91297 | -120.77693 | 29011 ft | 484 kts | 51° |
| 2026-05-07 21:16 | 38.93314 | -120.74321 | 29469 ft | 482 kts | 51° |
| 2026-05-07 21:16 | 38.95334 | -120.70939 | 29925 ft | 480 kts | 51° |
| 2026-05-07 21:16 | 38.97324 | -120.67602 | 30310 ft | 478 kts | 51° |
| 2026-05-07 21:16 | 38.99323 | -120.64252 | 30621 ft | 477 kts | 51° |
| 2026-05-07 21:17 | 39.01306 | -120.60923 | 30957 ft | 477 kts | 51° |
| 2026-05-07 21:17 | 39.03298 | -120.57579 | 31250 ft | 476 kts | 51° |
| 2026-05-07 21:17 | 39.05255 | -120.54287 | 31491 ft | 477 kts | 52° |
| 2026-05-07 21:17 | 39.07243 | -120.50939 | 31717 ft | 478 kts | 51° |
| 2026-05-07 21:18 | 39.09254 | -120.47548 | 31931 ft | 479 kts | 51° |
| 2026-05-07 21:18 | 39.11258 | -120.44170 | 32129 ft | 481 kts | 51° |
| 2026-05-07 21:18 | 39.13264 | -120.40780 | 32340 ft | 482 kts | 51° |
| 2026-05-07 21:18 | 39.15257 | -120.37405 | 32584 ft | 482 kts | 51° |
| 2026-05-07 21:19 | 39.17257 | -120.34015 | 32855 ft | 482 kts | 51° |
| 2026-05-07 21:19 | 39.19266 | -120.30611 | 33042 ft | 483 kts | 51° |
| 2026-05-07 21:19 | 39.23267 | -120.23824 | 33073 ft | 484 kts | 51° |
| 2026-05-07 21:20 | 39.27276 | -120.17008 | 33089 ft | 484 kts | 51° |
| 2026-05-07 21:20 | 39.31300 | -120.10146 | 33095 ft | 484 kts | 51° |
| 2026-05-07 21:21 | 39.35256 | -120.03389 | 33091 ft | 483 kts | 51° |
| 2026-05-07 21:21 | 39.39232 | -119.96578 | 32934 ft | 483 kts | 51° |
| 2026-05-07 21:22 | 39.42562 | -119.90871 | 32952 ft | 483 kts | 51° |
| 2026-05-07 21:22 | 39.46540 | -119.84034 | 32970 ft | 483 kts | 51° |
| 2026-05-07 21:23 | 39.50518 | -119.77180 | 32972 ft | 482 kts | 51° |
| 2026-05-07 21:23 | 39.54473 | -119.70356 | 32960 ft | 482 kts | 51° |
| 2026-05-07 21:24 | 39.58444 | -119.63485 | 32947 ft | 482 kts | 51° |
| 2026-05-07 21:24 | 39.62419 | -119.56592 | 32912 ft | 482 kts | 51° |
| 2026-05-07 21:25 | 39.66335 | -119.49788 | 32857 ft | 482 kts | 51° |
| 2026-05-07 21:25 | 39.70313 | -119.42863 | 32826 ft | 482 kts | 51° |
| 2026-05-07 21:26 | 39.74272 | -119.35960 | 32799 ft | 483 kts | 51° |
| 2026-05-07 21:26 | 39.78228 | -119.29040 | 32798 ft | 483 kts | 51° |
| 2026-05-07 21:27 | 39.82194 | -119.22089 | 32805 ft | 483 kts | 51° |
| 2026-05-07 21:27 | 39.86122 | -119.15188 | 32800 ft | 483 kts | 51° |
| 2026-05-07 21:28 | 39.89971 | -119.08255 | 32798 ft | 484 kts | 54° |
| 2026-05-07 21:28 | 39.93681 | -119.00941 | 32809 ft | 484 kts | 54° |
| 2026-05-07 21:29 | 39.97320 | -118.93687 | 32841 ft | 485 kts | 55° |
| 2026-05-07 21:29 | 40.00709 | -118.86179 | 32865 ft | 486 kts | 58° |
| 2026-05-07 21:30 | 40.03957 | -118.78560 | 32876 ft | 486 kts | 58° |
| 2026-05-07 21:30 | 40.07202 | -118.70920 | 32897 ft | 487 kts | 58° |
| 2026-05-07 21:31 | 40.10458 | -118.63249 | 32826 ft | 486 kts | 58° |
| 2026-05-07 21:31 | 40.13722 | -118.55547 | 32816 ft | 487 kts | 58° |
| 2026-05-07 21:32 | 40.16978 | -118.47845 | 32817 ft | 487 kts | 58° |
| 2026-05-07 21:32 | 40.20210 | -118.40185 | 32817 ft | 487 kts | 58° |
| 2026-05-07 21:33 | 40.23456 | -118.32463 | 32820 ft | 487 kts | 58° |
| 2026-05-07 21:33 | 40.26683 | -118.24775 | 32814 ft | 487 kts | 58° |
| 2026-05-07 21:34 | 40.29864 | -118.16990 | 32816 ft | 489 kts | 61° |
| 2026-05-07 21:34 | 40.32526 | -118.08775 | 32814 ft | 491 kts | 68° |
| 2026-05-07 21:35 | 40.34539 | -118.00200 | 32818 ft | 493 kts | 71° |
| 2026-05-07 21:35 | 40.36342 | -117.91627 | 32814 ft | 493 kts | 71° |
| 2026-05-07 21:36 | 40.38162 | -117.82959 | 32818 ft | 493 kts | 71° |
| 2026-05-07 21:36 | 40.39981 | -117.74303 | 32817 ft | 493 kts | 71° |
| 2026-05-07 21:37 | 40.41792 | -117.65676 | 32816 ft | 493 kts | 71° |
| 2026-05-07 21:37 | 40.43585 | -117.57100 | 32816 ft | 493 kts | 71° |
| 2026-05-07 21:38 | 40.45384 | -117.48461 | 32817 ft | 493 kts | 72° |
| 2026-05-07 21:38 | 40.47178 | -117.39797 | 32820 ft | 494 kts | 71° |
| 2026-05-07 21:39 | 40.48976 | -117.31095 | 32808 ft | 494 kts | 71° |
| 2026-05-07 21:39 | 40.50766 | -117.22397 | 32806 ft | 494 kts | 71° |
| 2026-05-07 21:40 | 40.52553 | -117.13661 | 32871 ft | 495 kts | 71° |
| 2026-05-07 21:40 | 40.54347 | -117.04921 | 32890 ft | 494 kts | 70° |
| 2026-05-07 21:41 | 40.56593 | -116.96431 | 32914 ft | 491 kts | 64° |
| 2026-05-07 21:41 | 40.59530 | -116.88424 | 32914 ft | 487 kts | 57° |
| 2026-05-07 21:42 | 40.63072 | -116.81042 | 32918 ft | 484 kts | 50° |
| 2026-05-07 21:42 | 40.66940 | -116.74080 | 32902 ft | 484 kts | 49° |
| 2026-05-07 21:43 | 40.70812 | -116.67161 | 32875 ft | 484 kts | 50° |
| 2026-05-07 21:43 | 40.74692 | -116.60186 | 32850 ft | 484 kts | 50° |
| 2026-05-07 21:44 | 40.78547 | -116.53219 | 32815 ft | 484 kts | 50° |
| 2026-05-07 21:44 | 40.82413 | -116.46214 | 32812 ft | 484 kts | 50° |
| 2026-05-07 21:45 | 40.86276 | -116.39201 | 32816 ft | 484 kts | 50° |
| 2026-05-07 21:45 | 40.90150 | -116.32149 | 32817 ft | 484 kts | 50° |
| 2026-05-07 21:46 | 40.93991 | -116.25137 | 32846 ft | 485 kts | 49° |
| 2026-05-07 21:46 | 40.97888 | -116.18009 | 32838 ft | 485 kts | 49° |
| 2026-05-07 21:47 | 41.01724 | -116.10979 | 32846 ft | 485 kts | 50° |
| 2026-05-07 21:47 | 41.05567 | -116.03919 | 32848 ft | 485 kts | 50° |
| 2026-05-07 21:48 | 41.09383 | -115.96893 | 32847 ft | 485 kts | 50° |
| 2026-05-07 21:48 | 41.13228 | -115.89790 | 32848 ft | 486 kts | 49° |
| 2026-05-07 21:49 | 41.17095 | -115.82635 | 32823 ft | 486 kts | 49° |
| 2026-05-07 21:49 | 41.20938 | -115.75511 | 32813 ft | 486 kts | 49° |
| 2026-05-07 21:50 | 41.24785 | -115.68363 | 32813 ft | 486 kts | 50° |
| 2026-05-07 21:50 | 41.28573 | -115.61297 | 32811 ft | 487 kts | 49° |
| 2026-05-07 21:51 | 41.32415 | -115.54124 | 32807 ft | 487 kts | 49° |
| 2026-05-07 21:51 | 41.36253 | -115.46943 | 32803 ft | 488 kts | 49° |
| 2026-05-07 21:52 | 41.40083 | -115.39762 | 32796 ft | 488 kts | 49° |
| 2026-05-07 21:52 | 41.43914 | -115.32558 | 32825 ft | 488 kts | 49° |
| 2026-05-07 21:53 | 41.47748 | -115.25325 | 32804 ft | 489 kts | 49° |
| 2026-05-07 21:53 | 41.51539 | -115.18163 | 32800 ft | 489 kts | 49° |
| 2026-05-07 21:54 | 41.55374 | -115.10902 | 32799 ft | 489 kts | 49° |
| 2026-05-07 21:54 | 41.59182 | -115.03672 | 32798 ft | 489 kts | 49° |
| 2026-05-07 21:55 | 41.63004 | -114.96393 | 32803 ft | 490 kts | 49° |
| 2026-05-07 21:55 | 41.66823 | -114.89113 | 32798 ft | 491 kts | 49° |
| 2026-05-07 21:56 | 41.70642 | -114.81815 | 32786 ft | 491 kts | 49° |
| 2026-05-07 21:56 | 41.74460 | -114.74499 | 32791 ft | 491 kts | 49° |
| 2026-05-07 21:57 | 41.78249 | -114.67220 | 32788 ft | 491 kts | 49° |
| 2026-05-07 21:57 | 41.82022 | -114.59952 | 32783 ft | 491 kts | 49° |
| 2026-05-07 21:58 | 41.85855 | -114.52554 | 32783 ft | 491 kts | 49° |
| 2026-05-07 21:58 | 41.89655 | -114.45200 | 32785 ft | 491 kts | 49° |
| 2026-05-07 21:59 | 41.93482 | -114.37776 | 32869 ft | 491 kts | 49° |
| 2026-05-07 21:59 | 41.97262 | -114.30418 | 32945 ft | 492 kts | 49° |
| 2026-05-07 22:00 | 42.01049 | -114.23037 | 32961 ft | 492 kts | 49° |
| 2026-05-07 22:00 | 42.04856 | -114.15604 | 32962 ft | 492 kts | 49° |
| 2026-05-07 22:01 | 42.08617 | -114.08237 | 32968 ft | 492 kts | 49° |
| 2026-05-07 22:01 | 42.12382 | -114.00839 | 32965 ft | 493 kts | 49° |
| 2026-05-07 22:02 | 42.16179 | -113.93367 | 32965 ft | 494 kts | 49° |
| 2026-05-07 22:02 | 42.19983 | -113.85862 | 32966 ft | 493 kts | 49° |
| 2026-05-07 22:03 | 42.23767 | -113.78374 | 32964 ft | 493 kts | 49° |
| 2026-05-07 22:03 | 42.27552 | -113.70864 | 32986 ft | 494 kts | 49° |
| 2026-05-07 22:04 | 42.31320 | -113.63377 | 32981 ft | 495 kts | 49° |
| 2026-05-07 22:04 | 42.35098 | -113.55850 | 32958 ft | 495 kts | 49° |
| 2026-05-07 22:05 | 42.38865 | -113.48322 | 32953 ft | 495 kts | 49° |
| 2026-05-07 22:05 | 42.42662 | -113.40715 | 32935 ft | 495 kts | 49° |
| 2026-05-07 22:06 | 42.46440 | -113.33126 | 32922 ft | 496 kts | 49° |
| 2026-05-07 22:06 | 42.50189 | -113.25581 | 32920 ft | 496 kts | 49° |
| 2026-05-07 22:07 | 42.53936 | -113.18020 | 32921 ft | 496 kts | 49° |
| 2026-05-07 22:07 | 42.57696 | -113.10411 | 32940 ft | 496 kts | 49° |
| 2026-05-07 22:08 | 42.61448 | -113.02795 | 32928 ft | 496 kts | 49° |
| 2026-05-07 22:08 | 42.64554 | -112.96473 | 32920 ft | 496 kts | 49° |
| 2026-05-07 22:09 | 42.68313 | -112.88812 | 32914 ft | 496 kts | 49° |
| 2026-05-07 22:09 | 42.71245 | -112.82827 | 32918 ft | 496 kts | 49° |
| 2026-05-07 22:10 | 42.75065 | -112.75000 | 32924 ft | 496 kts | 49° |
| 2026-05-07 22:10 | 42.78884 | -112.67161 | 32902 ft | 496 kts | 49° |
| 2026-05-07 22:11 | 42.82696 | -112.59318 | 32888 ft | 496 kts | 49° |
| 2026-05-07 22:11 | 42.86482 | -112.51500 | 32916 ft | 496 kts | 49° |
| 2026-05-07 22:12 | 42.88752 | -112.46806 | 32910 ft | 496 kts | 49° |
| 2026-05-07 22:12 | 42.92549 | -112.38937 | 32904 ft | 496 kts | 49° |
| 2026-05-07 22:13 | 42.96343 | -112.31056 | 32917 ft | 496 kts | 49° |
| 2026-05-07 22:13 | 43.00065 | -112.23292 | 32927 ft | 495 kts | 48° |
| 2026-05-07 22:14 | 43.03843 | -112.15403 | 32920 ft | 496 kts | 48° |
| 2026-05-07 22:14 | 43.07627 | -112.07479 | 32924 ft | 496 kts | 49° |
| 2026-05-07 22:15 | 43.11382 | -111.99593 | 32928 ft | 496 kts | 49° |
| 2026-05-07 22:15 | 43.15155 | -111.91653 | 32930 ft | 497 kts | 49° |
| 2026-05-07 22:16 | 43.18927 | -111.83684 | 32922 ft | 497 kts | 49° |
| 2026-05-07 22:16 | 43.22693 | -111.75709 | 32923 ft | 497 kts | 49° |
| 2026-05-07 22:17 | 43.26425 | -111.67786 | 32920 ft | 497 kts | 49° |
| 2026-05-07 22:17 | 43.30181 | -111.59789 | 32932 ft | 497 kts | 49° |
| 2026-05-07 22:18 | 43.35790 | -111.47804 | 32922 ft | 497 kts | 49° |
| 2026-05-07 22:19 | 43.39529 | -111.39797 | 32936 ft | 497 kts | 49° |
| 2026-05-07 22:19 | 43.43264 | -111.31771 | 32927 ft | 497 kts | 49° |
| 2026-05-07 22:20 | 43.46993 | -111.23733 | 32919 ft | 497 kts | 49° |
| 2026-05-07 22:20 | 43.50720 | -111.15677 | 32927 ft | 499 kts | 50° |
| 2026-05-07 22:21 | 43.54426 | -111.07651 | 32928 ft | 498 kts | 50° |
| 2026-05-07 22:21 | 43.58136 | -110.99580 | 32941 ft | 498 kts | 50° |
| 2026-05-07 22:22 | 43.61849 | -110.91490 | 33010 ft | 498 kts | 50° |
| 2026-05-07 22:22 | 43.65572 | -110.83364 | 33345 ft | 500 kts | 50° |
| 2026-05-07 22:22 | 43.67420 | -110.79306 | 34007 ft | 494 kts | 50° |
| 2026-05-07 22:23 | 43.69222 | -110.75352 | 34325 ft | 491 kts | 50° |
| 2026-05-07 22:23 | 43.71042 | -110.71343 | 34532 ft | 492 kts | 50° |
| 2026-05-07 22:23 | 43.72865 | -110.67334 | 34731 ft | 492 kts | 50° |
| 2026-05-07 22:23 | 43.74691 | -110.63317 | 34946 ft | 491 kts | 50° |
| 2026-05-07 22:24 | 43.76510 | -110.59312 | 35129 ft | 491 kts | 50° |
| 2026-05-07 22:24 | 43.78327 | -110.55305 | 35400 ft | 490 kts | 50° |
| 2026-05-07 22:24 | 43.80138 | -110.51307 | 35613 ft | 489 kts | 50° |
| 2026-05-07 22:24 | 43.81941 | -110.47315 | 35822 ft | 488 kts | 50° |
| 2026-05-07 22:25 | 43.83745 | -110.43316 | 36017 ft | 488 kts | 50° |
| 2026-05-07 22:25 | 43.85519 | -110.39378 | 36195 ft | 487 kts | 50° |
| 2026-05-07 22:25 | 43.87314 | -110.35386 | 36428 ft | 487 kts | 50° |
| 2026-05-07 22:25 | 43.89107 | -110.31394 | 36616 ft | 486 kts | 50° |
| 2026-05-07 22:26 | 43.90893 | -110.27412 | 36810 ft | 486 kts | 50° |
| 2026-05-07 22:26 | 43.92683 | -110.23421 | 36949 ft | 486 kts | 51° |
| 2026-05-07 22:26 | 43.94466 | -110.19438 | 36998 ft | 485 kts | 51° |
| 2026-05-07 22:26 | 44.52384 | -13.05881 | 38018 ft | 538 kts | 120° |
| 2026-05-07 22:27 | 44.50604 | -13.01372 | 38036 ft | 520 kts | 119° |
| 2026-05-07 22:27 | 44.48873 | -12.96989 | 37769 ft | 508 kts | 118° |
| 2026-05-07 22:27 | 44.47287 | -12.92597 | 37372 ft | 502 kts | 115° |
| 2026-05-07 22:27 | 44.45877 | -12.88124 | 37102 ft | 502 kts | 112° |
| 2026-05-07 22:28 | 44.44535 | -12.83582 | 37017 ft | 504 kts | 112° |
| 2026-05-07 22:28 | 44.41792 | -12.74463 | 36984 ft | 506 kts | 113° |
| 2026-05-07 22:29 | 44.38969 | -12.65430 | 36979 ft | 506 kts | 114° |
| 2026-05-07 22:29 | 44.36105 | -12.56430 | 36976 ft | 506 kts | 114° |
| 2026-05-07 22:30 | 44.33213 | -12.47397 | 36968 ft | 501 kts | 116° |
| 2026-05-07 22:30 | 42.94356 | -8.46567 | 36821 ft | 491 kts | 113° |
| 2026-05-07 22:31 | 42.91077 | -8.38379 | 36875 ft | 492 kts | 127° |
| 2026-05-07 22:31 | 42.87199 | -8.30757 | 36900 ft | 492 kts | 127° |
| 2026-05-07 22:32 | 42.83351 | -8.23008 | 36898 ft | 493 kts | 127° |
| 2026-05-07 22:32 | 42.79549 | -8.15206 | 36908 ft | 493 kts | 126° |
| 2026-05-07 22:33 | 42.75766 | -8.07404 | 36903 ft | 493 kts | 126° |
| 2026-05-07 22:33 | 42.71980 | -7.99594 | 36903 ft | 492 kts | 126° |
| 2026-05-07 22:34 | 42.68187 | -7.91789 | 36909 ft | 492 kts | 127° |
| 2026-05-07 22:34 | 42.64407 | -7.84032 | 36911 ft | 492 kts | 127° |
| 2026-05-07 22:34 | 41.83044 | -6.21519 | 36751 ft | 493 kts | 128° |
| 2026-05-07 22:35 | 41.81137 | -6.17677 | 36842 ft | 496 kts | 130° |
| 2026-05-07 22:35 | 41.77107 | -6.10061 | 36908 ft | 502 kts | 131° |
| 2026-05-07 22:36 | 41.73059 | -6.02384 | 36916 ft | 506 kts | 130° |
| 2026-05-07 22:36 | 41.69025 | -5.94641 | 36918 ft | 507 kts | 130° |
| 2026-05-07 22:37 | 41.64992 | -5.86890 | 36918 ft | 507 kts | 130° |
| 2026-05-07 22:37 | 41.60957 | -5.79147 | 36904 ft | 506 kts | 130° |
| 2026-05-07 22:38 | 41.56921 | -5.71434 | 36916 ft | 505 kts | 131° |
| 2026-05-07 22:38 | 41.52834 | -5.63747 | 36728 ft | 507 kts | 133° |
| 2026-05-07 22:38 | 41.50650 | -5.60051 | 36419 ft | 504 kts | 134° |
| 2026-05-07 22:39 | 41.48460 | -5.56420 | 36081 ft | 501 kts | 134° |
| 2026-05-07 22:39 | 41.46273 | -5.52808 | 35640 ft | 498 kts | 134° |
| 2026-05-07 22:39 | 41.44097 | -5.49223 | 35111 ft | 496 kts | 134° |
| 2026-05-07 22:39 | 41.41926 | -5.45646 | 34578 ft | 495 kts | 134° |
| 2026-05-07 22:40 | 41.39760 | -5.42079 | 34024 ft | 494 kts | 134° |
| 2026-05-07 22:40 | 41.37596 | -5.38521 | 33404 ft | 494 kts | 134° |
| 2026-05-07 22:40 | 41.35459 | -5.35009 | 32801 ft | 493 kts | 133° |
| 2026-05-07 22:40 | 41.33299 | -5.31463 | 32201 ft | 492 kts | 133° |
| 2026-05-07 22:41 | 41.31137 | -5.27917 | 31529 ft | 493 kts | 133° |
| 2026-05-07 22:41 | 41.28967 | -5.24363 | 30909 ft | 498 kts | 133° |
| 2026-05-07 22:41 | 41.26769 | -5.20769 | 30303 ft | 501 kts | 132° |
| 2026-05-07 22:41 | 41.24565 | -5.17166 | 29721 ft | 502 kts | 132° |
| 2026-05-07 22:42 | 41.22359 | -5.13559 | 29171 ft | 503 kts | 132° |
| 2026-05-07 22:42 | 41.20148 | -5.09948 | 28610 ft | 503 kts | 132° |
| 2026-05-07 22:42 | 41.17934 | -5.06337 | 28009 ft | 502 kts | 132° |
| 2026-05-07 22:42 | 41.15733 | -5.02752 | 27411 ft | 497 kts | 132° |
| 2026-05-07 22:43 | 41.13561 | -4.99217 | 26837 ft | 493 kts | 132° |
| 2026-05-07 22:43 | 41.11398 | -4.95704 | 26283 ft | 488 kts | 132° |
| 2026-05-07 22:43 | 41.09259 | -4.92234 | 25729 ft | 484 kts | 132° |
| 2026-05-07 22:43 | 41.07158 | -4.88829 | 25210 ft | 480 kts | 131° |
| 2026-05-07 22:44 | 41.05049 | -4.85416 | 24656 ft | 476 kts | 131° |
| 2026-05-07 22:44 | 41.02954 | -4.82030 | 24120 ft | 472 kts | 131° |
| 2026-05-07 22:44 | 41.00881 | -4.78675 | 23619 ft | 468 kts | 132° |
| 2026-05-07 22:44 | 40.98828 | -4.75363 | 23022 ft | 463 kts | 131° |
| 2026-05-07 22:45 | 40.96788 | -4.72076 | 22405 ft | 460 kts | 131° |
| 2026-05-07 22:45 | 40.94758 | -4.68813 | 21743 ft | 457 kts | 131° |
| 2026-05-07 22:45 | 40.92744 | -4.65576 | 21139 ft | 453 kts | 131° |
| 2026-05-07 22:45 | 40.90748 | -4.62371 | 20570 ft | 449 kts | 131° |
| 2026-05-07 22:46 | 40.88771 | -4.59199 | 20002 ft | 445 kts | 131° |
| 2026-05-07 22:46 | 40.86811 | -4.56057 | 19436 ft | 441 kts | 131° |
| 2026-05-07 22:46 | 40.84861 | -4.52932 | 18886 ft | 437 kts | 131° |
| 2026-05-07 22:46 | 40.82937 | -4.49849 | 18349 ft | 433 kts | 131° |
| 2026-05-07 22:47 | 40.80876 | -4.47076 | 17713 ft | 426 kts | 144° |
| 2026-05-07 22:47 | 40.78357 | -4.45096 | 17159 ft | 418 kts | 154° |
| 2026-05-07 22:47 | 40.75813 | -4.43318 | 16757 ft | 409 kts | 154° |
| 2026-05-07 22:47 | 40.73311 | -4.41583 | 16266 ft | 404 kts | 154° |
| 2026-05-07 22:48 | 40.70835 | -4.39868 | 15785 ft | 398 kts | 154° |
| 2026-05-07 22:48 | 40.68393 | -4.38177 | 15304 ft | 393 kts | 154° |
| 2026-05-07 22:48 | 40.65985 | -4.36504 | 14838 ft | 389 kts | 154° |
| 2026-05-07 22:48 | 40.63602 | -4.34850 | 14383 ft | 385 kts | 153° |
| 2026-05-07 22:49 | 40.61240 | -4.33209 | 13912 ft | 382 kts | 154° |
| 2026-05-07 22:49 | 40.58899 | -4.31581 | 13418 ft | 378 kts | 154° |
| 2026-05-07 22:49 | 40.56586 | -4.29972 | 12916 ft | 374 kts | 154° |
| 2026-05-07 22:49 | 40.54294 | -4.28385 | 12420 ft | 371 kts | 154° |
| 2026-05-07 22:50 | 40.52019 | -4.26814 | 11932 ft | 368 kts | 153° |
| 2026-05-07 22:50 | 40.49750 | -4.25244 | 11445 ft | 367 kts | 153° |
| 2026-05-07 22:50 | 40.47498 | -4.23685 | 11043 ft | 364 kts | 154° |
| 2026-05-07 22:50 | 40.45283 | -4.22151 | 10971 ft | 363 kts | 154° |
| 2026-05-07 22:51 | 40.43058 | -4.20616 | 10963 ft | 356 kts | 154° |
| 2026-05-07 22:51 | 40.40918 | -4.19141 | 10955 ft | 338 kts | 154° |
| 2026-05-07 22:51 | 40.38895 | -4.17744 | 10952 ft | 320 kts | 154° |
| 2026-05-07 22:51 | 40.36975 | -4.16402 | 10948 ft | 304 kts | 150° |
| 2026-05-07 22:52 | 40.35335 | -4.14761 | 10948 ft | 291 kts | 137° |
| 2026-05-07 22:52 | 40.34067 | -4.12702 | 10957 ft | 291 kts | 124° |
| 2026-05-07 22:52 | 40.33196 | -4.10292 | 10961 ft | 294 kts | 112° |
| 2026-05-07 22:52 | 40.32535 | -4.07748 | 10818 ft | 294 kts | 110° |
| 2026-05-07 22:53 | 40.31901 | -4.05174 | 10606 ft | 297 kts | 110° |
| 2026-05-07 22:53 | 40.31274 | -4.02619 | 10360 ft | 292 kts | 110° |
| 2026-05-07 22:53 | 40.30650 | -4.00094 | 10180 ft | 291 kts | 110° |
| 2026-05-07 22:53 | 40.30023 | -3.97576 | 10004 ft | 290 kts | 110° |
| 2026-05-07 22:54 | 40.29395 | -3.95067 | 9854 ft | 289 kts | 111° |
| 2026-05-07 22:54 | 40.28764 | -3.92559 | 9703 ft | 289 kts | 111° |
| 2026-05-07 22:54 | 40.28134 | -3.90060 | 9589 ft | 288 kts | 111° |
| 2026-05-07 22:54 | 40.27505 | -3.87566 | 9477 ft | 288 kts | 111° |
| 2026-05-07 22:55 | 40.26878 | -3.85082 | 9315 ft | 284 kts | 111° |
| 2026-05-07 22:55 | 40.26259 | -3.82634 | 8972 ft | 282 kts | 111° |
| 2026-05-07 22:55 | 40.25657 | -3.80262 | 8789 ft | 273 kts | 110° |
| 2026-05-07 22:55 | 40.25067 | -3.77930 | 8612 ft | 265 kts | 110° |
| 2026-05-07 22:56 | 40.24494 | -3.75664 | 8400 ft | 259 kts | 110° |
| 2026-05-07 22:56 | 40.23921 | -3.73411 | 7947 ft | 264 kts | 110° |
| 2026-05-07 22:56 | 40.23326 | -3.71075 | 7355 ft | 274 kts | 110° |
| 2026-05-07 22:56 | 40.22722 | -3.68707 | 6994 ft | 273 kts | 110° |
| 2026-05-07 22:57 | 40.22125 | -3.66356 | 6689 ft | 271 kts | 110° |
| 2026-05-07 22:57 | 40.21532 | -3.64025 | 6368 ft | 269 kts | 110° |
| 2026-05-07 22:57 | 40.21141 | -3.62489 | 6148 ft | 267 kts | 110° |
| 2026-05-07 22:57 | 40.20556 | -3.60194 | 5995 ft | 265 kts | 110° |
| 2026-05-07 22:58 | 40.19969 | -3.57895 | 5990 ft | 266 kts | 110° |
| 2026-05-07 22:58 | 40.19379 | -3.55590 | 5984 ft | 267 kts | 110° |
| 2026-05-07 22:58 | 40.18787 | -3.53280 | 5983 ft | 268 kts | 110° |
| 2026-05-07 22:58 | 40.18196 | -3.50971 | 5975 ft | 264 kts | 110° |
| 2026-05-07 22:59 | 40.17629 | -3.48748 | 5898 ft | 252 kts | 109° |
| 2026-05-07 22:59 | 40.17455 | -3.46502 | 5663 ft | 250 kts | 79° |
| 2026-05-07 22:59 | 40.18226 | -3.44480 | 5368 ft | 252 kts | 49° |
| 2026-05-07 22:59 | 40.19512 | -3.42921 | 5076 ft | 251 kts | 43° |
| 2026-05-07 23:00 | 40.20876 | -3.41489 | 4986 ft | 253 kts | 37° |
| 2026-05-07 23:00 | 40.22382 | -3.40266 | 4985 ft | 255 kts | 31° |
| 2026-05-07 23:00 | 40.23933 | -3.39147 | 4984 ft | 252 kts | 30° |
| 2026-05-07 23:00 | 40.25486 | -3.38308 | 4986 ft | 238 kts | 15° |
| 2026-05-07 23:01 | 40.27082 | -3.38008 | 4992 ft | 227 kts | 5° |
| 2026-05-07 23:01 | 40.28659 | -3.37897 | 5007 ft | 226 kts | 4° |
| 2026-05-07 23:01 | 40.30234 | -3.37806 | 5014 ft | 226 kts | 3° |
| 2026-05-07 23:01 | 40.31780 | -3.38067 | 4994 ft | 227 kts | 337° |
| 2026-05-07 23:02 | 40.33160 | -3.39084 | 5037 ft | 223 kts | 324° |
| 2026-05-07 23:02 | 40.34361 | -3.40284 | 5037 ft | 206 kts | 320° |
| 2026-05-07 23:02 | 40.35468 | -3.41461 | 4893 ft | 204 kts | 320° |
| 2026-05-07 23:02 | 40.36570 | -3.42624 | 4619 ft | 203 kts | 320° |
| 2026-05-07 23:03 | 40.37681 | -3.43771 | 4341 ft | 203 kts | 322° |
| 2026-05-07 23:03 | 40.38780 | -3.44891 | 4047 ft | 196 kts | 322° |
| 2026-05-07 23:03 | 40.39825 | -3.45952 | 3782 ft | 184 kts | 323° |
| 2026-05-07 23:03 | 40.40804 | -3.46948 | 3532 ft | 173 kts | 323° |
| 2026-05-07 23:04 | 40.41741 | -3.47901 | 3334 ft | 172 kts | 323° |
| 2026-05-07 23:04 | 40.42686 | -3.48863 | 3098 ft | 168 kts | 323° |
| 2026-05-07 23:04 | 40.43586 | -3.49780 | 2856 ft | 161 kts | 322° |
| 2026-05-07 23:04 | 40.44462 | -3.50678 | 2638 ft | 159 kts | 323° |
| 2026-05-07 23:05 | 40.45335 | -3.51569 | 2440 ft | 158 kts | 323° |
| 2026-05-07 23:05 | 40.46200 | -3.52460 | 2210 ft | 158 kts | 323° |
| 2026-05-07 23:05 | 40.47073 | -3.53330 | 2035 ft | 156 kts | 323° |
| 2026-05-07 23:05 | 40.47904 | -3.54170 | 1958 ft | 134 kts | 323° |
| 2026-05-07 23:06 | 40.48448 | -3.54721 | 1960 ft | 72 kts | 322° |
| 2026-05-07 23:06 | 40.48701 | -3.54998 | 1981 ft | 36 kts | 310° |
| 2026-05-07 23:06 | 40.48817 | -3.55263 | 1984 ft | 25 kts | 293° |
| 2026-05-07 23:06 | 40.48882 | -3.55435 | 1987 ft | 21 kts | 308° |
| 2026-05-07 23:07 | 40.48924 | -3.55491 | 1987 ft | 0 kts | 319° |
| 2026-05-07 23:09 | 40.48966 | -3.55535 | 1988 ft | 18 kts | 324° |
| 2026-05-07 23:09 | 40.49069 | -3.55640 | 1991 ft | 19 kts | 322° |
| 2026-05-07 23:09 | 40.49137 | -3.55709 | 1992 ft | 0 kts | 321° |
| 2026-05-07 23:10 | 40.49138 | -3.55710 | 1992 ft | 0 kts | 321° |
| 2026-05-07 23:11 | 40.49151 | -3.55724 | 1992 ft | 5 kts | 321° |
| 2026-05-07 23:11 | 40.49184 | -3.55760 | 1993 ft | 7 kts | 321° |
| 2026-05-07 23:11 | 40.49226 | -3.55805 | 1994 ft | 9 kts | 321° |
| 2026-05-07 23:11 | 40.49278 | -3.55861 | 1995 ft | 10 kts | 321° |
| 2026-05-07 23:12 | 40.49297 | -3.55936 | 1995 ft | 10 kts | 275° |
| 2026-05-07 23:12 | 40.49301 | -3.56049 | 1990 ft | 15 kts | 271° |
| 2026-05-07 23:12 | 40.49303 | -3.56197 | 1984 ft | 14 kts | 274° |
| 2026-05-07 23:12 | 40.49344 | -3.56245 | 1985 ft | 7 kts | 357° |
| 2026-05-07 23:13 | 40.49383 | -3.56264 | 1984 ft | 6 kts | 285° |
| 2026-05-07 23:13 | 40.49393 | -3.56335 | 1976 ft | 7 kts | 272° |
| 2026-05-07 23:13 | 40.49393 | -3.56349 | 1976 ft | 0 kts | 271° |
| 2026-05-07 23:13 | 40.49393 | -3.56350 | 1976 ft | 0 kts | 271° |